Time;durP1;ratioP1;P1;durP2;ratioP2;P2;SDS_P1;SDS_P2;PMS_P1;PMS_P2;Temp;Humidity;BMP_temperature;BMP_pressure;BME280_temperature;BME280_humidity;BME280_pressure;Samples;Min_cycle;Max_cycle;Signal;HPM_P1;HPM_P2
2023/10/24 00:00:15;;;;;;;10.70;5.60;;;9.80;99.90;;;;;;4872097;29;20042;-80
2023/10/24 00:02:40;;;;;;;11.13;5.80;;;9.80;99.90;;;;;;4859188;29;20339;-80
2023/10/24 00:05:07;;;;;;;10.65;5.32;;;9.80;99.90;;;;;;4872954;29;20507;-80
2023/10/24 00:07:33;;;;;;;10.88;5.10;;;9.90;99.90;;;;;;4859715;29;20440;-80
2023/10/24 00:10:01;;;;;;;10.07;5.20;;;9.80;99.90;;;;;;4874515;29;20044;-80
2023/10/24 00:12:26;;;;;;;9.95;5.47;;;9.80;99.90;;;;;;4845257;29;20120;-80
2023/10/24 00:14:55;;;;;;;11.13;5.82;;;9.80;99.90;;;;;;4874364;29;20452;-80
2023/10/24 00:17:20;;;;;;;11.30;5.43;;;9.80;99.90;;;;;;4851254;29;20040;-80
2023/10/24 00:19:46;;;;;;;10.88;6.15;;;9.90;99.90;;;;;;4861063;29;20045;-80
2023/10/24 00:22:12;;;;;;;10.93;5.55;;;9.90;99.90;;;;;;4859228;29;20041;-80
2023/10/24 00:24:37;;;;;;;10.50;5.65;;;9.80;99.90;;;;;;4866525;29;20053;-80
2023/10/24 00:27:03;;;;;;;11.82;5.82;;;9.90;99.90;;;;;;4842706;29;20044;-80
2023/10/24 00:29:29;;;;;;;12.05;5.60;;;9.90;99.90;;;;;;4860378;29;20053;-80
2023/10/24 00:31:55;;;;;;;11.43;5.43;;;9.90;99.90;;;;;;4853835;29;20044;-80
2023/10/24 00:34:21;;;;;;;11.18;5.35;;;9.90;99.90;;;;;;4863915;29;20044;-80
2023/10/24 00:36:46;;;;;;;10.07;5.00;;;9.90;99.90;;;;;;4856359;29;20065;-80
2023/10/24 00:39:12;;;;;;;11.10;6.13;;;9.90;99.90;;;;;;4852299;29;20142;-80
2023/10/24 00:41:38;;;;;;;10.90;5.97;;;9.90;99.90;;;;;;4848264;29;20517;-80
2023/10/24 00:44:06;;;;;;;10.93;5.57;;;9.90;99.90;;;;;;4862295;29;20037;-80
2023/10/24 00:46:34;;;;;;;10.02;5.22;;;9.90;99.90;;;;;;4839063;29;20368;-80
2023/10/24 00:49:01;;;;;;;11.98;5.93;;;9.90;99.90;;;;;;4862896;29;20037;-80
2023/10/24 00:51:26;;;;;;;11.00;5.68;;;9.90;99.90;;;;;;4856157;29;20083;-80
2023/10/24 00:53:53;;;;;;;11.00;5.47;;;10.00;99.90;;;;;;4863112;29;20072;-80
2023/10/24 00:56:20;;;;;;;11.75;5.93;;;10.00;99.90;;;;;;4863008;29;20410;-80
2023/10/24 00:58:48;;;;;;;12.38;5.45;;;10.00;99.90;;;;;;4855659;29;20049;-80
2023/10/24 01:01:14;;;;;;;11.98;5.75;;;10.00;99.90;;;;;;4857882;29;20215;-80
2023/10/24 01:03:42;;;;;;;10.95;5.88;;;10.00;99.90;;;;;;4863661;29;20041;-81
2023/10/24 01:06:09;;;;;;;10.63;5.68;;;10.00;99.90;;;;;;4863965;29;20041;-81
2023/10/24 01:08:35;;;;;;;11.60;5.50;;;10.00;99.90;;;;;;4862951;29;20060;-80
2023/10/24 01:11:01;;;;;;;9.75;5.22;;;10.00;99.90;;;;;;4856511;29;20041;-81
2023/10/24 01:13:27;;;;;;;11.27;5.90;;;10.00;99.90;;;;;;4876294;29;20048;-80
2023/10/24 01:15:53;;;;;;;12.30;5.68;;;10.00;99.90;;;;;;4848423;29;20045;-80
2023/10/24 01:18:19;;;;;;;12.10;5.93;;;10.00;99.90;;;;;;4875695;29;20053;-81
2023/10/24 01:20:44;;;;;;;10.55;5.65;;;10.00;99.90;;;;;;4849121;29;20075;-81
2023/10/24 01:23:10;;;;;;;9.98;5.35;;;10.00;99.90;;;;;;4869435;29;20084;-80
2023/10/24 01:25:40;;;;;;;11.63;5.85;;;10.00;99.90;;;;;;4871686;29;20041;-81
2023/10/24 01:28:08;;;;;;;10.30;5.40;;;10.00;99.90;;;;;;4874985;29;20094;-80
2023/10/24 01:30:39;;;;;;;11.68;5.68;;;10.00;99.90;;;;;;4885111;29;20068;-80
2023/10/24 01:33:04;;;;;;;10.57;5.57;;;10.00;99.90;;;;;;4871359;29;20060;-80
2023/10/24 01:35:30;;;;;;;10.05;5.25;;;10.00;99.90;;;;;;4855806;29;20032;-80
2023/10/24 01:37:56;;;;;;;11.02;5.93;;;10.00;99.90;;;;;;4873136;29;20040;-80
2023/10/24 01:40:22;;;;;;;10.02;5.32;;;10.00;99.90;;;;;;4857142;29;20105;-80
2023/10/24 01:42:48;;;;;;;11.40;5.88;;;10.00;99.90;;;;;;4873353;29;20044;-80
2023/10/24 01:45:17;;;;;;;10.75;5.90;;;10.00;99.90;;;;;;4857971;29;20059;-81
2023/10/24 01:47:43;;;;;;;10.70;5.72;;;10.00;99.90;;;;;;4887540;29;20411;-81
2023/10/24 01:50:09;;;;;;;10.70;5.80;;;10.00;99.90;;;;;;4858824;29;20192;-81
2023/10/24 01:52:35;;;;;;;11.27;5.50;;;10.00;99.90;;;;;;4858945;29;20047;-81
2023/10/24 01:55:01;;;;;;;9.70;5.15;;;10.00;99.90;;;;;;4870814;29;20044;-82
2023/10/24 01:57:27;;;;;;;10.82;5.30;;;10.10;99.90;;;;;;4856036;29;20095;-81
2023/10/24 01:59:53;;;;;;;11.25;5.97;;;10.00;99.90;;;;;;4872709;29;20052;-82
2023/10/24 02:02:18;;;;;;;11.40;6.05;;;10.10;99.90;;;;;;4870252;29;20044;-82
2023/10/24 02:04:44;;;;;;;10.63;5.88;;;10.00;99.90;;;;;;4857769;29;20580;-82
2023/10/24 02:07:10;;;;;;;10.20;5.53;;;10.10;99.90;;;;;;4843086;29;20131;-82
2023/10/24 02:09:35;;;;;;;11.25;5.82;;;10.10;99.90;;;;;;4859306;29;20040;-81
2023/10/24 02:12:02;;;;;;;10.93;5.88;;;10.10;99.90;;;;;;4858654;29;20082;-82
2023/10/24 02:14:28;;;;;;;10.50;5.60;;;10.10;99.90;;;;;;4858070;29;20049;-82
2023/10/24 02:16:54;;;;;;;10.50;5.40;;;10.10;99.90;;;;;;4857231;29;20055;-82
2023/10/24 02:19:20;;;;;;;10.52;5.93;;;10.10;99.90;;;;;;4886988;29;20483;-81
2023/10/24 02:21:45;;;;;;;12.57;6.15;;;10.10;99.90;;;;;;4856951;29;20605;-81
2023/10/24 02:24:11;;;;;;;11.50;5.97;;;10.20;99.90;;;;;;4872376;29;20108;-82
2023/10/24 02:26:37;;;;;;;11.00;5.78;;;10.20;99.90;;;;;;4870364;29;20052;-81
2023/10/24 02:29:03;;;;;;;11.43;6.00;;;10.10;99.90;;;;;;4888358;29;20057;-81
2023/10/24 02:31:28;;;;;;;11.82;6.10;;;10.20;99.90;;;;;;4872726;29;20044;-81
2023/10/24 02:33:54;;;;;;;10.45;5.60;;;10.20;99.90;;;;;;4856624;29;20068;-81
2023/10/24 02:36:20;;;;;;;11.88;5.97;;;10.10;99.90;;;;;;4871434;29;20056;-82
2023/10/24 02:38:46;;;;;;;11.82;5.75;;;10.20;99.90;;;;;;4857915;29;20084;-81
2023/10/24 02:41:12;;;;;;;10.25;5.50;;;10.20;99.90;;;;;;4872388;29;20040;-81
2023/10/24 02:43:38;;;;;;;10.90;5.50;;;10.20;99.90;;;;;;4856414;29;20032;-82
2023/10/24 02:46:05;;;;;;;10.85;5.93;;;10.20;99.90;;;;;;4858358;29;20041;-81
2023/10/24 02:48:34;;;;;;;10.35;5.50;;;10.20;99.90;;;;;;4854016;29;20044;-81
2023/10/24 02:51:00;;;;;;;9.70;5.55;;;11.60;99.90;;;;;;4855721;29;20045;-82
2023/10/24 02:53:26;;;;;;;10.45;5.80;;;10.30;99.90;;;;;;4887417;29;20045;-81
2023/10/24 02:55:52;;;;;;;11.70;6.15;;;10.30;99.90;;;;;;4868496;29;20052;-82
2023/10/24 02:58:18;;;;;;;10.73;5.82;;;10.30;99.90;;;;;;4870511;29;20059;-82
2023/10/24 03:00:45;;;;;;;10.50;5.47;;;10.30;99.90;;;;;;4872412;29;20033;-82
2023/10/24 03:03:12;;;;;;;11.48;6.05;;;10.30;99.90;;;;;;4842278;29;20041;-82
2023/10/24 03:05:37;;;;;;;11.43;5.45;;;10.30;99.90;;;;;;4857336;29;20056;-82
2023/10/24 03:08:05;;;;;;;10.63;5.90;;;10.30;99.90;;;;;;4892561;29;20495;-81
2023/10/24 03:10:31;;;;;;;11.00;5.90;;;10.30;99.90;;;;;;4892198;29;20112;-82
2023/10/24 03:12:57;;;;;;;11.07;5.68;;;10.40;99.90;;;;;;4857388;29;20432;-81
2023/10/24 03:15:23;;;;;;;10.20;5.55;;;10.40;99.90;;;;;;4874011;29;20047;-82
2023/10/24 03:17:48;;;;;;;11.65;5.97;;;10.40;99.90;;;;;;4874125;29;20041;-81
2023/10/24 03:20:14;;;;;;;9.77;5.15;;;10.40;99.90;;;;;;4860728;29;20209;-82
2023/10/24 03:22:40;;;;;;;10.30;5.28;;;10.40;99.90;;;;;;4890280;29;20116;-82
2023/10/24 03:25:06;;;;;;;9.88;5.45;;;10.50;99.90;;;;;;4859727;29;20051;-80
2023/10/24 03:27:32;;;;;;;10.15;5.53;;;10.50;99.90;;;;;;4856302;29;20866;-81
2023/10/24 03:29:59;;;;;;;9.95;5.38;;;10.50;99.90;;;;;;4854693;29;20135;-81
2023/10/24 03:32:26;;;;;;;9.85;5.15;;;10.50;99.90;;;;;;4875899;29;20044;-81
2023/10/24 03:34:52;;;;;;;10.25;5.10;;;10.50;99.90;;;;;;4890976;29;20123;-81
2023/10/24 03:37:19;;;;;;;9.40;4.75;;;10.50;99.90;;;;;;4859109;29;20135;-81
2023/10/24 03:39:45;;;;;;;9.48;5.13;;;10.50;99.90;;;;;;4860112;29;20507;-81
2023/10/24 03:42:13;;;;;;;10.15;5.25;;;10.50;99.90;;;;;;4875812;29;20116;-81
2023/10/24 03:44:42;;;;;;;9.25;4.72;;;10.50;99.90;;;;;;4875897;29;20041;-82
2023/10/24 03:47:08;;;;;;;8.77;4.35;;;10.60;99.90;;;;;;4873410;29;20403;-81
2023/10/24 03:49:33;;;;;;;9.73;4.80;;;10.60;99.90;;;;;;4890847;29;20069;-81
2023/10/24 03:51:59;;;;;;;9.50;4.88;;;10.60;99.90;;;;;;4859941;29;20281;-81
2023/10/24 03:54:26;;;;;;;9.77;4.75;;;10.60;99.90;;;;;;4860483;29;20422;-81
2023/10/24 03:56:51;;;;;;;9.98;5.03;;;10.60;99.90;;;;;;4887917;29;20442;-81
2023/10/24 03:59:17;;;;;;;10.18;5.32;;;10.60;99.90;;;;;;4873408;29;20308;-81
2023/10/24 04:01:43;;;;;;;9.68;5.00;;;10.60;99.90;;;;;;4872444;29;20480;-82
2023/10/24 04:04:09;;;;;;;9.40;4.90;;;10.70;99.90;;;;;;4858997;29;20044;-81
2023/10/24 04:06:34;;;;;;;10.43;5.63;;;10.70;99.90;;;;;;4890081;29;20059;-82
2023/10/24 04:09:04;;;;;;;10.85;5.25;;;10.70;99.90;;;;;;4873937;29;20048;-82
2023/10/24 04:11:32;;;;;;;10.43;5.07;;;10.70;99.90;;;;;;4845817;29;20095;-81
2023/10/24 04:13:58;;;;;;;9.93;5.43;;;10.70;99.90;;;;;;4889847;29;20056;-81
2023/10/24 04:16:24;;;;;;;9.68;5.05;;;10.70;99.90;;;;;;4874439;29;20100;-82
2023/10/24 04:18:50;;;;;;;10.00;5.45;;;10.70;99.90;;;;;;4872675;29;20049;-81
2023/10/24 04:21:16;;;;;;;9.27;5.22;;;10.70;99.90;;;;;;4860187;29;20043;-81
2023/10/24 04:23:43;;;;;;;10.80;5.63;;;10.70;99.90;;;;;;4889906;29;20064;-81
2023/10/24 04:26:09;;;;;;;10.18;5.43;;;10.70;99.90;;;;;;4873406;29;20041;-81
2023/10/24 04:28:35;;;;;;;9.77;5.28;;;10.80;99.90;;;;;;4871983;29;20109;-81
2023/10/24 04:31:01;;;;;;;9.25;5.30;;;10.80;99.90;;;;;;4867491;29;20252;-81
2023/10/24 04:33:27;;;;;;;12.38;5.82;;;10.80;99.90;;;;;;4872945;29;20039;-81
2023/10/24 04:35:53;;;;;;;10.50;5.82;;;10.80;99.90;;;;;;4858189;29;20044;-80
2023/10/24 04:38:19;;;;;;;9.80;5.22;;;10.80;99.90;;;;;;4887823;29;20491;-81
2023/10/24 04:40:45;;;;;;;10.43;5.45;;;10.80;99.90;;;;;;4873845;29;20040;-81
2023/10/24 04:43:11;;;;;;;9.63;5.22;;;10.80;99.90;;;;;;4865694;29;20040;-81
2023/10/24 04:45:38;;;;;;;10.00;5.55;;;10.80;99.90;;;;;;4873242;29;20108;-82
2023/10/24 04:48:04;;;;;;;10.38;5.38;;;10.90;99.90;;;;;;4871968;29;20071;-82
2023/10/24 04:50:34;;;;;;;10.27;5.68;;;10.90;99.90;;;;;;4872285;29;20119;-81
2023/10/24 04:53:00;;;;;;;9.75;5.38;;;10.80;99.90;;;;;;4870949;29;20119;-82
2023/10/24 04:55:25;;;;;;;9.75;5.20;;;10.90;99.90;;;;;;4856060;29;20556;-81
2023/10/24 04:57:51;;;;;;;10.63;5.93;;;10.90;99.90;;;;;;4871335;29;20104;-82
2023/10/24 05:00:17;;;;;;;9.90;5.82;;;10.90;99.90;;;;;;4864985;29;20415;-82
2023/10/24 05:02:44;;;;;;;9.48;4.97;;;10.90;99.90;;;;;;4842742;29;20044;-82
2023/10/24 05:05:10;;;;;;;9.35;5.00;;;10.90;99.90;;;;;;4868198;29;20044;-81
2023/10/24 05:07:36;;;;;;;9.68;5.25;;;10.90;99.90;;;;;;4856363;29;20040;-80
2023/10/24 05:10:03;;;;;;;10.38;5.68;;;10.90;99.90;;;;;;4869923;29;20062;-81
2023/10/24 05:12:28;;;;;;;9.98;5.55;;;11.00;99.90;;;;;;4873783;29;20246;-80
2023/10/24 05:14:54;;;;;;;10.57;5.75;;;11.00;99.90;;;;;;4858935;29;20176;-80
2023/10/24 05:17:20;;;;;;;10.00;5.40;;;11.00;99.90;;;;;;4873341;29;20416;-80
2023/10/24 05:19:46;;;;;;;9.35;5.25;;;11.00;99.90;;;;;;4852199;29;20049;-80
2023/10/24 05:22:12;;;;;;;9.60;5.13;;;11.00;99.90;;;;;;4870808;29;20045;-81
2023/10/24 05:24:38;;;;;;;10.55;5.13;;;11.00;99.90;;;;;;4872331;29;20060;-82
2023/10/24 05:27:05;;;;;;;9.32;5.03;;;9.70;99.90;;;;;;4842234;29;20044;-81
2023/10/24 05:29:34;;;;;;;12.35;5.50;;;11.10;99.90;;;;;;4885144;29;20040;-82
2023/10/24 05:32:00;;;;;;;10.25;5.32;;;11.10;99.90;;;;;;4883653;29;20109;-80
2023/10/24 05:34:30;;;;;;;10.18;5.25;;;9.80;99.90;;;;;;4859305;29;20044;-80
2023/10/24 05:36:56;;;;;;;10.43;5.10;;;11.10;99.90;;;;;;4858492;29;20059;-80
2023/10/24 05:39:24;;;;;;;10.82;5.50;;;11.10;99.90;;;;;;4889985;29;20124;-80
2023/10/24 05:41:50;;;;;;;9.77;5.47;;;11.10;99.90;;;;;;4873863;29;20048;-80
2023/10/24 05:44:16;;;;;;;10.20;5.63;;;11.10;99.90;;;;;;4874460;29;20048;-80
2023/10/24 05:46:42;;;;;;;10.20;5.43;;;11.10;99.90;;;;;;4858361;29;20067;-81
2023/10/24 05:49:08;;;;;;;12.20;5.53;;;11.10;99.90;;;;;;4873216;29;20084;-80
2023/10/24 05:51:34;;;;;;;10.38;5.80;;;11.00;99.90;;;;;;4874492;29;20040;-80
2023/10/24 05:54:00;;;;;;;10.45;6.07;;;11.10;99.90;;;;;;4874047;29;20824;-80
2023/10/24 05:56:26;;;;;;;10.13;5.72;;;11.10;99.90;;;;;;4889363;29;20071;-80
2023/10/24 05:58:52;;;;;;;9.95;5.80;;;11.10;99.90;;;;;;4874690;29;20048;-80
2023/10/24 06:01:18;;;;;;;9.85;5.63;;;11.10;99.90;;;;;;4873219;29;20047;-80
2023/10/24 06:03:45;;;;;;;10.27;5.93;;;11.10;99.90;;;;;;4889175;29;20395;-80
2023/10/24 06:06:10;;;;;;;10.57;5.70;;;11.10;99.90;;;;;;4874873;29;20033;-80
2023/10/24 06:08:37;;;;;;;11.00;5.95;;;11.10;99.90;;;;;;4888383;29;20495;-80
2023/10/24 06:11:03;;;;;;;9.77;5.40;;;11.10;99.90;;;;;;4874024;29;20044;-80
2023/10/24 06:13:30;;;;;;;10.25;5.72;;;11.10;99.90;;;;;;4868089;29;20041;-80
2023/10/24 06:16:08;;;;;;;8.85;5.07;;;11.10;99.90;;;;;;4870549;29;20093;-80
2023/10/24 06:18:33;;;;;;;10.43;5.80;;;11.10;99.90;;;;;;4871764;29;20456;-80
2023/10/24 06:21:06;;;;;;;10.07;5.57;;;11.10;99.90;;;;;;4855528;29;20047;-80
2023/10/24 06:23:33;;;;;;;10.18;5.55;;;11.00;99.90;;;;;;4886450;29;20418;-80
2023/10/24 06:26:00;;;;;;;9.25;5.13;;;11.10;99.90;;;;;;4874313;29;20559;-80
2023/10/24 06:28:26;;;;;;;10.43;5.28;;;11.00;99.90;;;;;;4873720;29;20048;-80
2023/10/24 06:31:01;;;;;;;9.68;5.15;;;11.00;99.90;;;;;;4871583;29;20388;-80
2023/10/24 06:33:27;;;;;;;9.52;4.97;;;11.00;99.90;;;;;;4872940;29;20044;-83
2023/10/24 06:35:57;;;;;;;9.75;5.18;;;11.00;99.90;;;;;;4842161;29;20059;-80
2023/10/24 06:38:23;;;;;;;9.35;4.95;;;11.10;99.90;;;;;;4887497;29;20117;-80
2023/10/24 06:40:50;;;;;;;9.50;5.20;;;11.00;99.90;;;;;;4874010;29;20132;-80
2023/10/24 06:43:17;;;;;;;9.63;5.13;;;11.10;99.90;;;;;;4878728;29;20041;-81
2023/10/24 06:45:43;;;;;;;9.95;5.22;;;11.10;99.90;;;;;;4890830;29;20096;-80
2023/10/24 06:48:11;;;;;;;10.15;5.00;;;11.10;99.90;;;;;;4875687;29;20037;-80
2023/10/24 06:50:38;;;;;;;8.88;4.80;;;11.10;99.90;;;;;;4874718;29;20041;-80
2023/10/24 06:53:05;;;;;;;9.02;4.95;;;11.10;99.90;;;;;;4875756;29;20060;-80
2023/10/24 06:55:30;;;;;;;8.80;4.43;;;11.10;99.90;;;;;;4876915;29;20043;-80
2023/10/24 06:57:58;;;;;;;11.32;4.93;;;11.10;99.90;;;;;;4892985;29;20033;-80
2023/10/24 07:00:25;;;;;;;10.20;5.22;;;11.10;99.90;;;;;;4836122;29;20071;-80
2023/10/24 07:02:51;;;;;;;9.38;4.80;;;11.10;99.90;;;;;;4873294;29;20175;-81
2023/10/24 07:05:18;;;;;;;8.65;4.53;;;11.10;99.90;;;;;;4844311;29;20104;-80
2023/10/24 07:07:44;;;;;;;9.75;5.10;;;11.10;99.90;;;;;;4875347;29;20570;-80
2023/10/24 07:10:10;;;;;;;10.68;5.10;;;11.10;99.90;;;;;;4859233;29;20068;-80
2023/10/24 07:12:35;;;;;;;9.50;4.97;;;11.10;99.90;;;;;;4860914;29;20048;-80
2023/10/24 07:15:03;;;;;;;9.70;4.95;;;11.20;99.90;;;;;;4858459;29;20071;-80
2023/10/24 07:17:30;;;;;;;8.30;4.28;;;11.10;99.90;;;;;;4872310;29;20041;-80
2023/10/24 07:19:58;;;;;;;9.20;4.72;;;11.10;99.90;;;;;;4877729;29;20048;-80
2023/10/24 07:22:24;;;;;;;9.00;4.47;;;11.10;99.90;;;;;;4875727;29;20037;-80
2023/10/24 07:24:50;;;;;;;9.38;4.45;;;11.20;99.90;;;;;;4874150;29;20067;-80
2023/10/24 07:27:15;;;;;;;8.70;4.47;;;11.20;99.90;;;;;;4860185;29;21798;-80
2023/10/24 07:29:41;;;;;;;8.77;4.30;;;11.10;99.90;;;;;;4871595;29;20060;-80
2023/10/24 07:32:07;;;;;;;8.18;4.30;;;11.10;99.90;;;;;;4872924;29;20066;-80
2023/10/24 07:34:33;;;;;;;8.68;4.50;;;11.20;99.90;;;;;;4873302;29;20040;-80
2023/10/24 07:36:59;;;;;;;8.70;4.35;;;11.20;99.90;;;;;;4872915;29;20041;-80
2023/10/24 07:39:26;;;;;;;9.38;4.50;;;11.20;99.90;;;;;;4872703;29;20041;-80
2023/10/24 07:41:51;;;;;;;8.55;4.07;;;11.20;99.90;;;;;;4876227;29;20040;-80
2023/10/24 07:44:18;;;;;;;10.45;4.10;;;11.20;99.90;;;;;;4875954;29;20051;-80
2023/10/24 07:46:43;;;;;;;9.13;4.40;;;11.20;99.90;;;;;;4860744;29;20495;-80
2023/10/24 07:49:10;;;;;;;8.75;4.18;;;11.20;99.90;;;;;;4875244;29;20044;-80
2023/10/24 07:51:36;;;;;;;8.65;4.05;;;11.20;99.90;;;;;;4857970;29;20037;-80
2023/10/24 07:54:02;;;;;;;8.40;3.90;;;11.20;99.90;;;;;;4875597;29;20044;-80
2023/10/24 07:56:28;;;;;;;8.20;4.05;;;11.30;99.90;;;;;;4860912;29;20045;-80
2023/10/24 07:58:53;;;;;;;8.75;4.20;;;11.30;99.90;;;;;;4875386;29;20045;-80
2023/10/24 08:01:19;;;;;;;8.32;3.95;;;11.30;99.90;;;;;;4872592;29;20040;-80
2023/10/24 08:03:45;;;;;;;7.95;3.72;;;11.30;99.90;;;;;;4874133;29;20049;-80
2023/10/24 08:06:11;;;;;;;8.43;4.07;;;11.30;99.90;;;;;;4871540;29;20040;-80
2023/10/24 08:08:39;;;;;;;8.80;4.28;;;11.30;99.90;;;;;;4858521;29;20565;-80
2023/10/24 08:11:05;;;;;;;7.97;3.83;;;11.30;99.90;;;;;;4886406;29;20530;-81
2023/10/24 08:13:31;;;;;;;8.52;4.03;;;11.30;99.90;;;;;;4870233;29;20064;-81
2023/10/24 08:15:58;;;;;;;9.10;4.35;;;11.30;99.90;;;;;;4873067;29;20107;-80
2023/10/24 08:18:27;;;;;;;8.50;3.90;;;11.30;99.90;;;;;;4860353;29;20096;-80
2023/10/24 08:20:56;;;;;;;8.73;4.32;;;11.30;99.90;;;;;;4849722;29;20124;-80
2023/10/24 08:23:22;;;;;;;9.60;4.50;;;11.30;99.90;;;;;;4843362;29;20053;-80
2023/10/24 08:25:47;;;;;;;8.32;4.10;;;11.30;99.90;;;;;;4874798;29;20119;-80
2023/10/24 08:28:13;;;;;;;9.05;4.13;;;11.30;99.90;;;;;;4856505;29;20096;-80
2023/10/24 08:30:39;;;;;;;8.90;4.07;;;11.30;99.90;;;;;;4889913;29;20147;-80
2023/10/24 08:33:06;;;;;;;9.75;4.00;;;11.30;99.90;;;;;;4871567;29;20555;-80
2023/10/24 08:35:31;;;;;;;7.85;3.63;;;11.40;99.90;;;;;;4856198;29;20526;-80
2023/10/24 08:37:57;;;;;;;8.75;4.00;;;11.40;99.90;;;;;;4876165;29;20045;-80
2023/10/24 08:40:23;;;;;;;9.55;4.57;;;11.40;99.90;;;;;;4873519;29;20037;-80
2023/10/24 08:42:49;;;;;;;8.38;4.07;;;11.40;99.90;;;;;;4853563;29;20111;-80
2023/10/24 08:45:18;;;;;;;8.75;4.07;;;11.40;99.90;;;;;;4870556;29;20052;-80
2023/10/24 08:47:47;;;;;;;8.20;4.10;;;11.40;99.90;;;;;;4890297;29;20464;-80
2023/10/24 08:50:13;;;;;;;9.20;4.35;;;11.40;99.90;;;;;;4852030;29;20052;-80
2023/10/24 08:52:39;;;;;;;8.63;4.03;;;11.40;99.90;;;;;;4888346;29;20045;-80
2023/10/24 08:55:05;;;;;;;8.43;4.10;;;11.40;99.90;;;;;;4857038;29;20041;-80
2023/10/24 08:57:42;;;;;;;10.68;5.28;;;11.40;99.90;;;;;;4871649;29;20116;-80
2023/10/24 09:00:10;;;;;;;8.70;4.45;;;11.40;99.90;;;;;;4858501;29;20044;-80
2023/10/24 09:02:38;;;;;;;8.18;4.32;;;11.40;99.90;;;;;;4857065;29;20036;-80
2023/10/24 09:05:05;;;;;;;8.95;4.45;;;11.40;99.90;;;;;;4874409;29;20456;-80
2023/10/24 09:07:30;;;;;;;9.52;4.60;;;11.40;99.90;;;;;;4856963;29;20513;-80
2023/10/24 09:09:56;;;;;;;9.90;4.85;;;11.40;99.90;;;;;;4872323;29;20040;-80
2023/10/24 09:12:22;;;;;;;10.25;4.95;;;11.40;99.90;;;;;;4873285;29;20068;-80
2023/10/24 09:14:48;;;;;;;12.45;5.10;;;11.40;99.90;;;;;;4851401;29;20116;-80
2023/10/24 09:17:15;;;;;;;9.55;4.38;;;11.40;99.90;;;;;;4855991;29;20068;-80
2023/10/24 09:19:41;;;;;;;9.43;4.47;;;11.40;99.90;;;;;;4858708;29;20044;-80
2023/10/24 09:22:07;;;;;;;8.95;4.35;;;11.40;99.90;;;;;;4871080;29;20049;-80
2023/10/24 09:24:35;;;;;;;11.73;4.97;;;11.40;99.90;;;;;;4890466;29;20053;-80
2023/10/24 09:27:01;;;;;;;9.85;5.20;;;11.40;99.90;;;;;;4861492;29;20096;-80
2023/10/24 09:29:27;;;;;;;9.15;4.55;;;11.40;99.90;;;;;;4856266;29;20182;-80
2023/10/24 09:31:54;;;;;;;10.73;5.15;;;11.40;99.90;;;;;;4857366;29;20055;-80
2023/10/24 09:34:21;;;;;;;10.68;5.30;;;11.40;99.90;;;;;;4857422;29;20045;-80
2023/10/24 09:36:48;;;;;;;10.02;5.03;;;11.40;99.90;;;;;;4872297;29;20051;-80
2023/10/24 09:39:16;;;;;;;9.23;4.70;;;11.40;99.90;;;;;;4888349;29;20172;-80
2023/10/24 09:41:43;;;;;;;10.77;5.30;;;11.40;99.90;;;;;;4874149;29;20041;-80
2023/10/24 09:44:10;;;;;;;10.38;5.07;;;11.40;99.90;;;;;;4854793;29;20045;-79
2023/10/24 09:46:36;;;;;;;11.10;5.28;;;11.40;99.90;;;;;;4871302;29;20040;-80
2023/10/24 09:49:04;;;;;;;10.60;5.10;;;11.40;99.90;;;;;;4871800;29;20217;-80
2023/10/24 09:51:31;;;;;;;10.00;5.22;;;11.40;99.90;;;;;;4857675;29;20051;-80
2023/10/24 09:53:58;;;;;;;9.95;5.10;;;11.40;99.90;;;;;;4871100;29;20597;-80
2023/10/24 09:56:25;;;;;;;11.95;5.05;;;11.40;99.90;;;;;;4889178;29;20041;-80
2023/10/24 09:58:51;;;;;;;10.25;5.45;;;11.40;99.90;;;;;;4873298;29;20049;-80
2023/10/24 10:01:18;;;;;;;10.88;5.05;;;11.40;99.90;;;;;;4870145;29;20040;-80
2023/10/24 10:03:44;;;;;;;9.68;5.10;;;11.40;99.90;;;;;;4868759;29;20041;-80
2023/10/24 10:06:16;;;;;;;10.05;5.20;;;11.40;99.90;;;;;;4871787;29;20483;-81
2023/10/24 10:08:42;;;;;;;9.38;4.60;;;11.40;99.90;;;;;;4889033;29;20055;-81
2023/10/24 10:11:08;;;;;;;9.30;4.75;;;11.40;99.90;;;;;;4890591;29;20033;-81
2023/10/24 10:13:52;;;;;;;9.25;4.78;;;11.50;99.90;;;;;;4886930;29;20468;-81
2023/10/24 10:16:39;;;;;;;8.93;4.53;;;11.50;99.90;;;;;;4887401;29;20040;-81
2023/10/24 10:19:15;;;;;;;9.40;4.82;;;11.50;99.90;;;;;;4887808;29;20048;-81
2023/10/24 10:21:56;;;;;;;9.80;4.57;;;11.50;99.90;;;;;;4887750;29;20076;-80
2023/10/24 10:24:45;;;;;;;8.70;4.68;;;11.50;99.90;;;;;;4873011;29;20135;-80
2023/10/24 10:27:20;;;;;;;9.10;4.47;;;11.50;99.90;;;;;;4866737;29;20104;-81
2023/10/24 10:30:16;;;;;;;9.45;4.43;;;11.40;99.90;;;;;;4873505;29;20440;-81
2023/10/24 10:32:42;;;;;;;8.77;4.15;;;11.40;99.90;;;;;;4888399;29;20037;-80
2023/10/24 10:35:08;;;;;;;9.40;4.75;;;11.40;99.90;;;;;;4856010;29;20531;-81
2023/10/24 10:37:34;;;;;;;9.85;4.93;;;11.40;99.90;;;;;;4868821;29;20639;-80
2023/10/24 10:40:15;;;;;;;9.02;4.50;;;11.40;99.90;;;;;;4872796;29;20115;-81
2023/10/24 10:42:48;;;;;;;9.50;5.03;;;11.40;99.90;;;;;;4852375;29;20084;-82
2023/10/24 10:45:22;;;;;;;10.02;4.80;;;11.50;99.90;;;;;;4868446;29;20045;-83
2023/10/24 10:47:48;;;;;;;9.18;4.63;;;11.50;99.90;;;;;;4869393;29;20092;-81
2023/10/24 10:50:22;;;;;;;8.98;4.63;;;11.60;99.90;;;;;;4887086;29;20071;-81
2023/10/24 10:53:07;;;;;;;9.98;5.05;;;11.60;99.90;;;;;;4870771;29;20459;-81
2023/10/24 10:55:36;;;;;;;9.60;4.90;;;11.60;99.90;;;;;;4868522;29;20045;-82
2023/10/24 10:58:25;;;;;;;9.88;5.03;;;11.70;99.90;;;;;;4868850;29;20100;-81
2023/10/24 11:01:11;;;;;;;9.18;4.95;;;11.70;99.90;;;;;;4866493;29;20056;-82
2023/10/24 11:03:46;;;;;;;9.57;5.32;;;11.70;99.90;;;;;;4868784;29;20033;-81
2023/10/24 11:06:17;;;;;;;9.35;4.80;;;11.70;99.90;;;;;;4867328;29;20822;-81
2023/10/24 11:08:48;;;;;;;9.75;5.00;;;11.80;99.90;;;;;;4857792;29;20044;-80
2023/10/24 11:11:20;;;;;;;9.13;4.70;;;11.80;99.90;;;;;;4886049;29;20049;-81
2023/10/24 11:13:48;;;;;;;9.27;4.88;;;11.80;99.90;;;;;;4872415;29;20510;-81
2023/10/24 11:16:14;;;;;;;9.65;4.80;;;11.80;99.90;;;;;;4873743;29;20045;-81
2023/10/24 11:18:41;;;;;;;9.35;4.63;;;11.80;99.90;;;;;;4868895;29;20041;-81
2023/10/24 11:21:16;;;;;;;9.27;5.05;;;11.80;99.90;;;;;;4858052;29;20284;-81
2023/10/24 11:23:44;;;;;;;9.15;4.70;;;11.90;99.90;;;;;;4883737;29;20084;-81
2023/10/24 11:26:10;;;;;;;8.65;4.60;;;11.80;99.90;;;;;;4882292;29;20045;-81
2023/10/24 11:28:36;;;;;;;9.10;4.72;;;11.90;99.90;;;;;;4865057;29;20075;-81
2023/10/24 11:31:23;;;;;;;9.85;4.95;;;11.90;99.90;;;;;;4869012;29;20566;-81
2023/10/24 11:33:48;;;;;;;10.63;5.00;;;11.90;99.90;;;;;;4867656;29;20041;-81
2023/10/24 11:36:15;;;;;;;9.50;4.78;;;11.90;99.90;;;;;;4847025;29;20045;-81
2023/10/24 11:38:41;;;;;;;9.07;4.75;;;11.90;99.90;;;;;;4861293;29;20055;-81
2023/10/24 11:41:06;;;;;;;9.45;5.07;;;12.00;99.90;;;;;;4866218;29;20049;-81
2023/10/24 11:43:32;;;;;;;10.40;4.80;;;11.90;99.90;;;;;;4865593;29;20064;-80
2023/10/24 11:45:59;;;;;;;9.32;4.70;;;11.90;99.90;;;;;;4860517;29;20036;-81
2023/10/24 11:48:25;;;;;;;9.52;5.18;;;11.90;99.90;;;;;;4863919;29;20044;-81
2023/10/24 11:50:52;;;;;;;9.43;4.80;;;11.90;99.90;;;;;;4868366;29;20424;-81
2023/10/24 11:53:22;;;;;;;8.60;4.45;;;12.00;99.90;;;;;;4870173;29;20041;-81
2023/10/24 11:55:49;;;;;;;10.27;4.90;;;12.00;99.90;;;;;;4873209;29;20046;-81
2023/10/24 11:58:15;;;;;;;10.23;5.13;;;12.00;99.90;;;;;;4866946;29;20029;-81
2023/10/24 12:00:42;;;;;;;9.20;4.68;;;12.00;99.90;;;;;;4858102;29;20431;-81
2023/10/24 12:03:08;;;;;;;10.07;4.60;;;12.00;99.90;;;;;;4869891;29;20811;-81
2023/10/24 12:05:35;;;;;;;8.50;4.47;;;12.00;99.90;;;;;;4864339;29;20108;-81
2023/10/24 12:08:03;;;;;;;8.82;4.57;;;12.00;99.90;;;;;;4868889;29;20297;-81
2023/10/24 12:10:30;;;;;;;8.80;4.40;;;11.90;99.90;;;;;;4862763;29;20040;-81
2023/10/24 12:13:05;;;;;;;9.07;4.30;;;12.00;99.90;;;;;;4870034;29;20098;-81
2023/10/24 12:15:31;;;;;;;8.55;4.57;;;11.90;99.90;;;;;;4861603;29;20044;-81
2023/10/24 12:18:06;;;;;;;9.35;4.22;;;11.90;99.90;;;;;;4860886;29;20107;-81
2023/10/24 12:20:32;;;;;;;9.70;4.85;;;11.90;99.90;;;;;;4852652;29;20049;-81
2023/10/24 12:22:58;;;;;;;9.13;4.53;;;11.80;99.90;;;;;;4867556;29;20048;-81
2023/10/24 12:25:24;;;;;;;8.80;4.35;;;11.90;99.90;;;;;;4868992;29;20139;-81
2023/10/24 12:27:49;;;;;;;8.90;4.65;;;11.90;99.90;;;;;;4891201;29;20041;-81
2023/10/24 12:30:15;;;;;;;8.73;4.30;;;11.90;99.90;;;;;;4874477;29;20141;-81
2023/10/24 12:32:41;;;;;;;9.05;4.70;;;11.90;99.90;;;;;;4888709;29;20108;-81
2023/10/24 12:35:08;;;;;;;8.70;4.20;;;11.90;99.90;;;;;;4884057;29;20056;-81
2023/10/24 12:37:35;;;;;;;8.70;4.45;;;11.90;99.90;;;;;;4870906;29;20052;-81
2023/10/24 12:40:06;;;;;;;9.48;4.88;;;11.90;99.90;;;;;;4886507;29;20172;-81
2023/10/24 12:42:33;;;;;;;9.18;4.32;;;12.00;99.90;;;;;;4874688;29;20087;-81